Time;durP1;ratioP1;P1;durP2;ratioP2;P2;SDS_P1;SDS_P2;PMS_P1;PMS_P2;Temp;Humidity;BMP_temperature;BMP_pressure;BME280_temperature;BME280_humidity;BME280_pressure;Samples;Min_cycle;Max_cycle;Signal;HPM_P1;HPM_P2
2023/03/29 00:00:35;;;;;;;4.67;4.20;;;;;;;;;;5115158;28;20291;-83
2023/03/29 00:03:04;;;;;;;5.93;3.53;;;;;;;;;;5115491;28;20227;-83
2023/03/29 00:05:34;;;;;;;5.57;5.00;;;;;;;;;;5115186;28;20276;-82
2023/03/29 00:08:03;;;;;;;5.53;4.57;;;;;;;;;;5115146;28;20224;-83
2023/03/29 00:10:32;;;;;;;3.77;3.47;;;;;;;;;;5115158;28;20228;-83
2023/03/29 00:13:01;;;;;;;7.87;4.67;;;;;;;;;;5115373;28;20204;-83
2023/03/29 00:15:30;;;;;;;5.60;4.50;;;;;;;;;;5114731;28;20204;-83
2023/03/29 00:17:58;;;;;;;4.67;4.13;;;;;;;;;;5114925;28;20229;-83
2023/03/29 00:20:27;;;;;;;5.37;3.47;;;;;;;;;;5115064;28;20223;-83
2023/03/29 00:22:57;;;;;;;5.00;3.50;;;;;;;;;;5114971;28;20200;-82
2023/03/29 00:25:26;;;;;;;8.50;5.37;;;;;;;;;;5114992;28;20247;-83
2023/03/29 00:27:54;;;;;;;7.83;4.50;;;;;;;;;;5114809;28;20207;-83
2023/03/29 00:30:22;;;;;;;4.63;4.23;;;;;;;;;;5114663;28;20298;-82
2023/03/29 00:32:51;;;;;;;5.60;5.10;;;;;;;;;;5114848;28;20196;-83
2023/03/29 00:35:19;;;;;;;5.90;5.20;;;;;;;;;;5114990;28;20216;-83
2023/03/29 00:37:49;;;;;;;3.17;2.30;;;;;;;;;;5114689;28;20280;-83
2023/03/29 00:40:19;;;;;;;5.73;4.67;;;;;;;;;;5115108;28;20265;-83
2023/03/29 00:42:48;;;;;;;5.13;4.33;;;;;;;;;;5114576;28;20291;-83
2023/03/29 00:45:18;;;;;;;5.33;4.53;;;;;;;;;;5114630;28;20190;-83
2023/03/29 00:47:49;;;;;;;5.57;4.67;;;;;;;;;;5114564;28;20204;-83
2023/03/29 00:50:21;;;;;;;6.07;5.37;;;;;;;;;;5114272;28;20198;-83
2023/03/29 00:52:52;;;;;;;5.67;4.23;;;;;;;;;;5114078;28;20208;-83
2023/03/29 00:55:23;;;;;;;5.20;3.57;;;;;;;;;;5114065;28;20272;-82
2023/03/29 00:57:54;;;;;;;1.80;1.70;;;;;;;;;;5114193;28;20193;-83
2023/03/29 01:00:25;;;;;;;6.07;5.33;;;;;;;;;;5114042;28;20284;-83
2023/03/29 01:02:58;;;;;;;5.37;4.80;;;;;;;;;;5114245;28;20216;-83
2023/03/29 01:05:29;;;;;;;5.43;4.93;;;;;;;;;;5114210;28;20212;-83
2023/03/29 01:07:59;;;;;;;4.63;4.20;;;;;;;;;;5113880;28;20192;-83
2023/03/29 01:10:32;;;;;;;3.33;3.03;;;;;;;;;;5113974;28;20284;-83
2023/03/29 01:13:02;;;;;;;5.50;5.00;;;;;;;;;;5113798;28;20249;-82
2023/03/29 01:15:31;;;;;;;4.17;3.40;;;;;;;;;;5113497;28;20230;-83
2023/03/29 01:18:00;;;;;;;6.23;5.03;;;;;;;;;;5113412;28;20279;-83
2023/03/29 01:20:35;;;;;;;3.73;3.03;;;;;;;;;;5113620;28;20219;-83
2023/03/29 01:23:14;;;;;;;5.17;4.67;;;;;;;;;;5113558;28;20213;-83
2023/03/29 01:25:48;;;;;;;5.13;3.83;;;;;;;;;;5113888;28;20290;-83
2023/03/29 01:28:21;;;;;;;3.93;3.33;;;;;;;;;;5113308;28;20332;-83
2023/03/29 01:30:51;;;;;;;3.03;2.73;;;;;;;;;;5113496;28;20219;-83
2023/03/29 01:33:22;;;;;;;5.73;4.33;;;;;;;;;;5113801;28;20296;-83
2023/03/29 01:35:53;;;;;;;4.63;3.93;;;;;;;;;;5113331;28;20291;-83
2023/03/29 01:38:24;;;;;;;4.03;3.33;;;;;;;;;;5113264;28;20249;-83
2023/03/29 01:40:52;;;;;;;7.17;4.37;;;;;;;;;;5113377;28;20222;-83
2023/03/29 01:43:24;;;;;;;5.77;5.07;;;;;;;;;;5113491;28;20200;-83
2023/03/29 01:45:57;;;;;;;7.40;4.60;;;;;;;;;;5113365;28;20255;-83
2023/03/29 01:48:28;;;;;;;5.13;3.77;;;;;;;;;;5113114;28;20211;-83
2023/03/29 01:50:59;;;;;;;5.33;4.00;;;;;;;;;;5112978;28;20227;-83
2023/03/29 01:53:30;;;;;;;6.00;4.97;;;;;;;;;;5113330;28;20203;-83
2023/03/29 01:56:03;;;;;;;5.10;4.20;;;;;;;;;;5113053;28;20288;-83
2023/03/29 01:58:35;;;;;;;5.63;5.00;;;;;;;;;;5112892;28;20196;-83
2023/03/29 02:01:09;;;;;;;4.90;4.50;;;;;;;;;;5113042;28;20200;-83
2023/03/29 02:03:41;;;;;;;5.37;3.90;;;;;;;;;;5112725;28;20245;-82
2023/03/29 02:06:11;;;;;;;2.40;2.20;;;;;;;;;;5112877;28;20223;-83
2023/03/29 02:08:40;;;;;;;8.47;4.47;;;;;;;;;;5113177;28;20196;-83
2023/03/29 02:11:09;;;;;;;4.73;4.23;;;;;;;;;;5112656;28;20204;-83
2023/03/29 02:13:39;;;;;;;4.43;4.03;;;;;;;;;;5112818;28;20295;-83
2023/03/29 02:16:10;;;;;;;3.90;3.60;;;;;;;;;;5112751;28;20220;-83
2023/03/29 02:18:40;;;;;;;6.07;4.60;;;;;;;;;;5112710;28;20254;-83
2023/03/29 02:21:09;;;;;;;5.37;4.50;;;;;;;;;;5112811;28;20253;-83
2023/03/29 02:23:38;;;;;;;5.63;5.03;;;;;;;;;;5112814;27;20224;-83
2023/03/29 02:26:07;;;;;;;6.43;4.73;;;;;;;;;;5112907;28;20276;-83
2023/03/29 02:28:36;;;;;;;5.60;4.60;;;;;;;;;;5112500;28;20208;-83
2023/03/29 02:31:08;;;;;;;7.53;4.40;;;;;;;;;;5112775;28;20250;-84
2023/03/29 02:33:40;;;;;;;7.03;4.90;;;;;;;;;;5112581;28;20201;-83
2023/03/29 02:36:10;;;;;;;4.33;3.87;;;;;;;;;;5112532;28;20216;-84
2023/03/29 02:38:39;;;;;;;5.10;4.43;;;;;;;;;;5112653;28;20229;-83
2023/03/29 02:41:09;;;;;;;6.27;5.50;;;;;;;;;;5112964;28;20197;-83
2023/03/29 02:43:40;;;;;;;4.23;3.83;;;;;;;;;;5112596;28;20244;-83
2023/03/29 02:46:10;;;;;;;7.63;5.50;;;;;;;;;;5112495;28;20192;-83
2023/03/29 02:48:39;;;;;;;6.77;3.60;;;;;;;;;;5112889;28;20208;-83
2023/03/29 02:51:12;;;;;;;6.97;4.83;;;;;;;;;;5112500;28;20200;-83
2023/03/29 02:53:42;;;;;;;6.47;5.27;;;;;;;;;;5112600;28;20196;-83
2023/03/29 02:56:11;;;;;;;5.33;4.10;;;;;;;;;;5112482;28;20221;-83
2023/03/29 02:58:39;;;;;;;5.57;4.93;;;;;;;;;;5112808;28;20295;-82
2023/03/29 03:01:10;;;;;;;8.27;4.93;;;;;;;;;;5112889;28;20192;-83
2023/03/29 03:03:38;;;;;;;8.93;5.23;;;;;;;;;;5112524;28;20295;-83
2023/03/29 03:06:07;;;;;;;14.60;3.57;;;;;;;;;;5112687;28;20212;-83
2023/03/29 03:08:35;;;;;;;5.33;3.77;;;;;;;;;;5112143;28;20262;-83
2023/03/29 03:11:03;;;;;;;7.40;5.00;;;;;;;;;;5112692;28;20197;-83
2023/03/29 03:13:32;;;;;;;3.33;3.03;;;;;;;;;;5112291;28;20196;-83
2023/03/29 03:16:01;;;;;;;6.73;5.50;;;;;;;;;;5113892;28;20212;-83
2023/03/29 03:18:32;;;;;;;5.43;4.90;;;;;;;;;;5115982;28;20235;-83
2023/03/29 03:21:01;;;;;;;6.37;5.80;;;;;;;;;;5116157;28;20249;-83
2023/03/29 03:23:30;;;;;;;12.50;6.20;;;;;;;;;;5116091;28;20219;-83
2023/03/29 03:25:58;;;;;;;7.10;4.20;;;;;;;;;;5115768;28;20257;-83
2023/03/29 03:28:27;;;;;;;5.83;5.03;;;;;;;;;;5116022;28;20207;-83
2023/03/29 03:30:55;;;;;;;8.23;5.70;;;;;;;;;;5115911;28;20197;-83
2023/03/29 03:33:25;;;;;;;6.97;6.13;;;;;;;;;;5115929;28;20236;-83
2023/03/29 03:35:55;;;;;;;7.13;5.40;;;;;;;;;;5115621;28;20259;-83
2023/03/29 03:38:24;;;;;;;8.03;4.33;;;;;;;;;;5116179;28;20202;-83
2023/03/29 03:40:55;;;;;;;8.40;5.73;;;;;;;;;;5115560;28;20205;-83
2023/03/29 03:43:24;;;;;;;8.33;4.87;;;;;;;;;;5115620;28;20235;-83
2023/03/29 03:45:52;;;;;;;7.50;4.33;;;;;;;;;;5115721;28;20197;-83
2023/03/29 03:48:21;;;;;;;8.03;6.53;;;;;;;;;;5115806;28;20203;-83
2023/03/29 03:50:50;;;;;;;8.50;5.13;;;;;;;;;;5115657;28;20204;-83
2023/03/29 03:53:20;;;;;;;7.40;5.43;;;;;;;;;;5115680;28;20242;-83
2023/03/29 03:55:49;;;;;;;2.97;2.73;;;;;;;;;;5115232;28;20291;-83
2023/03/29 03:58:19;;;;;;;8.57;6.53;;;;;;;;;;5115541;28;20212;-83
2023/03/29 04:00:48;;;;;;;11.20;6.20;;;;;;;;;;5116011;28;20205;-83
2023/03/29 04:03:17;;;;;;;6.77;4.87;;;;;;;;;;5115710;28;20220;-83
2023/03/29 04:05:47;;;;;;;6.93;5.47;;;;;;;;;;5114957;28;20225;-83
2023/03/29 04:08:15;;;;;;;5.57;4.67;;;;;;;;;;5115177;28;20205;-83
2023/03/29 04:10:51;;;;;;;8.53;6.30;;;;;;;;;;5114886;28;20196;-83
2023/03/29 04:13:20;;;;;;;7.60;5.63;;;;;;;;;;5115233;28;20205;-83
2023/03/29 04:15:52;;;;;;;8.00;5.80;;;;;;;;;;5114926;28;20192;-83
2023/03/29 04:18:21;;;;;;;8.30;7.00;;;;;;;;;;5114855;27;20224;-83
2023/03/29 04:20:50;;;;;;;6.90;5.90;;;;;;;;;;5114936;28;20200;-83
2023/03/29 04:23:19;;;;;;;8.03;5.93;;;;;;;;;;5115258;28;20280;-83
2023/03/29 04:25:48;;;;;;;7.67;6.83;;;;;;;;;;5114820;28;20239;-83
2023/03/29 04:28:17;;;;;;;7.60;5.70;;;;;;;;;;5114584;28;20208;-82
2023/03/29 04:30:46;;;;;;;6.87;5.67;;;;;;;;;;5114719;28;20239;-83
2023/03/29 04:33:16;;;;;;;7.87;6.60;;;;;;;;;;5114514;28;20286;-83
2023/03/29 04:35:44;;;;;;;6.10;5.50;;;;;;;;;;5114844;28;20197;-83
2023/03/29 04:38:12;;;;;;;7.40;6.53;;;;;;;;;;5114626;28;20209;-83
2023/03/29 04:40:42;;;;;;;6.73;5.77;;;;;;;;;;5114676;28;20201;-83
2023/03/29 04:43:13;;;;;;;7.53;6.13;;;;;;;;;;5114713;28;20201;-83
2023/03/29 04:45:42;;;;;;;4.90;3.87;;;;;;;;;;5114378;28;20205;-83
2023/03/29 04:48:10;;;;;;;8.03;4.93;;;;;;;;;;5114658;28;20204;-83
2023/03/29 04:50:39;;;;;;;8.40;6.57;;;;;;;;;;5114586;28;20201;-83
2023/03/29 04:53:07;;;;;;;10.80;6.67;;;;;;;;;;5114337;28;20266;-83
2023/03/29 04:55:35;;;;;;;13.37;6.43;;;;;;;;;;5114019;28;20198;-83
2023/03/29 04:58:04;;;;;;;6.53;5.63;;;;;;;;;;5114035;28;20213;-83
2023/03/29 05:00:34;;;;;;;9.27;6.70;;;;;;;;;;5114002;28;20208;-83
2023/03/29 05:03:03;;;;;;;9.47;6.87;;;;;;;;;;5113951;28;20233;-84
2023/03/29 05:05:31;;;;;;;5.37;4.87;;;;;;;;;;5113878;28;20257;-83
2023/03/29 05:08:00;;;;;;;7.63;6.40;;;;;;;;;;5113985;28;20244;-83
2023/03/29 05:10:28;;;;;;;4.20;3.60;;;;;;;;;;5113702;28;20215;-83
2023/03/29 05:12:57;;;;;;;4.93;2.83;;;;;;;;;;5113956;28;20208;-83
2023/03/29 05:15:25;;;;;;;7.63;5.83;;;;;;;;;;5113808;28;20203;-83
2023/03/29 05:17:55;;;;;;;3.93;3.53;;;;;;;;;;5113371;28;20230;-83
2023/03/29 05:20:23;;;;;;;6.23;5.37;;;;;;;;;;5114070;28;20205;-80
2023/03/29 05:22:52;;;;;;;4.87;4.00;;;;;;;;;;5114327;28;20198;-80
2023/03/29 05:25:21;;;;;;;1.53;1.43;;;;;;;;;;5113572;28;20209;-80
2023/03/29 05:27:49;;;;;;;6.10;3.80;;;;;;;;;;5113679;28;20199;-80
2023/03/29 05:30:18;;;;;;;1.27;1.27;;;;;;;;;;5113593;28;20239;-80
2023/03/29 05:32:46;;;;;;;2.13;2.03;;;;;;;;;;5113374;28;20367;-80
2023/03/29 05:35:16;;;;;;;2.07;1.90;;;;;;;;;;5113865;28;20210;-80
2023/03/29 05:37:46;;;;;;;4.23;1.90;;;;;;;;;;5113089;28;20249;-80
2023/03/29 05:40:14;;;;;;;11.77;6.10;;;;;;;;;;5112976;28;20202;-80
2023/03/29 05:42:42;;;;;;;2.90;2.27;;;;;;;;;;5113396;28;20198;-80
2023/03/29 05:45:11;;;;;;;10.57;4.10;;;;;;;;;;5113424;28;20250;-80
2023/03/29 05:47:40;;;;;;;5.90;5.40;;;;;;;;;;5113257;28;20199;-80
2023/03/29 05:50:10;;;;;;;8.10;7.13;;;;;;;;;;5113343;28;20267;-80
2023/03/29 05:52:41;;;;;;;7.53;5.83;;;;;;;;;;5113347;28;20415;-80
2023/03/29 05:55:10;;;;;;;6.43;2.90;;;;;;;;;;5113046;28;20200;-80
2023/03/29 05:57:39;;;;;;;1.53;1.43;;;;;;;;;;5112795;28;20221;-80
2023/03/29 06:00:16;;;;;;;2.97;2.40;;;;;;;;;;5113072;28;20203;-80
2023/03/29 06:02:45;;;;;;;2.37;2.17;;;;;;;;;;5112859;28;20197;-80
2023/03/29 06:05:14;;;;;;;7.57;3.60;;;;;;;;;;5113013;28;20229;-80
2023/03/29 06:07:44;;;;;;;5.17;3.97;;;;;;;;;;5112679;28;20195;-80
2023/03/29 06:10:13;;;;;;;4.97;4.50;;;;;;;;;;5112614;28;20229;-81
2023/03/29 06:12:41;;;;;;;3.47;3.17;;;;;;;;;;5112984;28;20205;-81
2023/03/29 06:15:11;;;;;;;1.90;1.80;;;;;;;;;;5113054;28;20206;-81
2023/03/29 06:17:39;;;;;;;8.13;3.40;;;;;;;;;;5112141;28;20325;-81
2023/03/29 06:20:09;;;;;;;7.03;5.23;;;;;;;;;;5112860;28;20206;-81
2023/03/29 06:22:38;;;;;;;4.53;3.43;;;;;;;;;;5113214;28;20199;-81
2023/03/29 06:25:09;;;;;;;6.63;4.40;;;;;;;;;;5112942;28;20396;-81
2023/03/29 06:27:38;;;;;;;9.47;6.00;;;;;;;;;;5112845;28;20196;-81
2023/03/29 06:30:07;;;;;;;7.77;4.50;;;;;;;;;;5112650;28;20294;-81
2023/03/29 06:32:36;;;;;;;9.53;6.00;;;;;;;;;;5112444;28;20211;-81
2023/03/29 06:35:04;;;;;;;5.73;4.70;;;;;;;;;;5112724;28;20241;-81
2023/03/29 06:37:33;;;;;;;3.97;2.97;;;;;;;;;;5112287;28;20222;-81
2023/03/29 06:40:06;;;;;;;9.93;6.17;;;;;;;;;;5113055;28;20215;-81
2023/03/29 06:42:36;;;;;;;3.80;2.60;;;;;;;;;;5112715;28;20290;-81
2023/03/29 06:45:04;;;;;;;3.53;3.27;;;;;;;;;;5112425;28;20202;-81
2023/03/29 06:47:33;;;;;;;1.97;1.87;;;;;;;;;;5112673;28;20206;-81
2023/03/29 06:50:01;;;;;;;12.30;7.87;;;;;;;;;;5114314;28;20202;-81
2023/03/29 06:52:32;;;;;;;9.53;6.53;;;;;;;;;;5116607;28;20228;-81
2023/03/29 06:55:01;;;;;;;5.57;4.43;;;;;;;;;;5117173;28;20196;-81
2023/03/29 06:57:30;;;;;;;4.70;3.67;;;;;;;;;;5116495;28;20200;-81
2023/03/29 07:00:00;;;;;;;3.83;3.50;;;;;;;;;;5116401;28;20205;-81
2023/03/29 07:02:29;;;;;;;11.93;7.20;;;;;;;;;;5116322;28;20204;-81
2023/03/29 07:04:59;;;;;;;14.17;7.77;;;;;;;;;;5116435;28;20238;-81
2023/03/29 07:07:38;;;;;;;7.67;4.63;;;;;;;;;;5116397;28;20193;-81
2023/03/29 07:10:07;;;;;;;8.40;6.50;;;;;;;;;;5116365;28;20266;-81
2023/03/29 07:12:35;;;;;;;10.50;7.57;;;;;;;;;;5116613;28;20254;-81
2023/03/29 07:15:08;;;;;;;3.23;3.03;;;;;;;;;;5115519;28;20251;-83
2023/03/29 07:17:37;;;;;;;10.73;6.30;;;;;;;;;;5109345;28;20237;-84
2023/03/29 07:20:11;;;;;;;9.03;4.27;;;;;;;;;;5116069;28;20238;-84
2023/03/29 07:22:44;;;;;;;7.40;4.37;;;;;;;;;;5104113;28;20205;-84
2023/03/29 07:25:16;;;;;;;4.97;4.20;;;;;;;;;;5097639;28;20239;-85
2023/03/29 07:27:54;;;;;;;6.03;4.37;;;;;;;;;;5098752;28;20225;-83
2023/03/29 07:30:26;;;;;;;9.53;5.57;;;;;;;;;;5109197;28;20203;-85
2023/03/29 07:32:59;;;;;;;6.73;3.67;;;;;;;;;;5108049;28;20205;-85
2023/03/29 07:35:29;;;;;;;3.47;3.13;;;;;;;;;;5105375;28;20199;-87
2023/03/29 07:37:58;;;;;;;1.90;1.80;;;;;;;;;;5106712;28;20747;-83
2023/03/29 07:40:30;;;;;;;18.13;6.80;;;;;;;;;;5116087;28;20214;-84
2023/03/29 07:42:58;;;;;;;9.17;5.40;;;;;;;;;;5107512;28;20305;-86
2023/03/29 07:45:28;;;;;;;10.83;6.17;;;;;;;;;;5109755;27;20212;-87
2023/03/29 07:47:58;;;;;;;12.93;4.17;;;;;;;;;;5112348;28;20203;-87
2023/03/29 07:50:36;;;;;;;10.57;6.10;;;;;;;;;;5104509;28;20218;-88
2023/03/29 07:53:05;;;;;;;29.27;10.87;;;;;;;;;;5101761;28;20261;-85
2023/03/29 07:55:33;;;;;;;4.17;3.47;;;;;;;;;;5098891;28;20229;-87
2023/03/29 07:58:03;;;;;;;22.90;10.53;;;;;;;;;;5098234;28;20244;-86
2023/03/29 08:00:33;;;;;;;9.67;5.30;;;;;;;;;;5103744;28;20254;-87
2023/03/29 08:03:06;;;;;;;7.87;4.90;;;;;;;;;;5096136;28;20193;-86
2023/03/29 08:05:35;;;;;;;11.03;5.27;;;;;;;;;;5101338;28;20229;-89
2023/03/29 08:08:09;;;;;;;14.87;7.40;;;;;;;;;;5096836;28;20289;-85
2023/03/29 08:10:41;;;;;;;16.33;10.17;;;;;;;;;;5100287;28;20203;-85
2023/03/29 08:13:13;;;;;;;7.27;4.57;;;;;;;;;;5100611;28;20254;-85
2023/03/29 08:15:45;;;;;;;5.80;3.43;;;;;;;;;;5102684;28;20234;-86
2023/03/29 08:18:38;;;;;;;11.73;6.87;;;;;;;;;;5096337;28;20327;-87
2023/03/29 08:21:07;;;;;;;10.10;6.47;;;;;;;;;;5100482;28;20209;-88
2023/03/29 08:23:37;;;;;;;9.73;6.03;;;;;;;;;;5107691;28;20228;-88
2023/03/29 08:26:07;;;;;;;18.60;10.97;;;;;;;;;;5102226;28;20250;-87
2023/03/29 08:28:36;;;;;;;8.77;5.37;;;;;;;;;;5105245;28;20208;-87
2023/03/29 08:31:09;;;;;;;14.23;8.13;;;;;;;;;;5110079;28;20204;-90
2023/03/29 08:33:38;;;;;;;4.47;3.43;;;;;;;;;;5104203;27;20203;-87
2023/03/29 08:36:07;;;;;;;2.23;2.13;;;;;;;;;;5095893;28;20216;-86
2023/03/29 08:38:36;;;;;;;7.67;4.77;;;;;;;;;;5095659;28;20228;-88
2023/03/29 08:41:14;;;;;;;6.17;4.30;;;;;;;;;;5102440;28;20196;-86
2023/03/29 08:43:52;;;;;;;17.57;9.23;;;;;;;;;;5094527;28;20204;-86
2023/03/29 08:46:27;;;;;;;15.60;11.33;;;;;;;;;;5105641;28;20257;-85
2023/03/29 08:49:06;;;;;;;5.57;5.13;;;;;;;;;;5095308;28;20208;-85
2023/03/29 08:51:38;;;;;;;11.13;6.57;;;;;;;;;;5097734;28;20219;-87
2023/03/29 08:54:12;;;;;;;18.00;7.47;;;;;;;;;;5099632;28;20211;-84
2023/03/29 08:56:44;;;;;;;11.43;6.17;;;;;;;;;;5105777;28;20213;-85
2023/03/29 08:59:18;;;;;;;8.17;5.27;;;;;;;;;;5103909;28;20217;-86
2023/03/29 09:01:49;;;;;;;4.57;3.50;;;;;;;;;;5095143;28;20258;-83
2023/03/29 09:04:21;;;;;;;7.77;6.23;;;;;;;;;;5101749;28;20209;-83
2023/03/29 09:06:51;;;;;;;10.47;5.80;;;;;;;;;;5110024;28;20258;-84
2023/03/29 09:09:24;;;;;;;12.23;6.57;;;;;;;;;;5106465;28;20203;-86
2023/03/29 09:12:01;;;;;;;14.63;7.73;;;;;;;;;;5106662;28;20204;-86
2023/03/29 09:14:39;;;;;;;10.17;6.70;;;;;;;;;;5102156;28;20208;-87
2023/03/29 09:17:15;;;;;;;8.53;5.00;;;;;;;;;;5108551;28;20200;-84
2023/03/29 09:19:48;;;;;;;10.30;6.03;;;;;;;;;;5110033;28;20234;-85
2023/03/29 09:22:23;;;;;;;13.10;9.37;;;;;;;;;;5108539;28;20225;-85
2023/03/29 09:24:59;;;;;;;14.57;8.90;;;;;;;;;;5097370;28;20208;-85
2023/03/29 09:27:31;;;;;;;11.37;6.10;;;;;;;;;;5096511;28;20201;-86
2023/03/29 09:30:05;;;;;;;9.70;5.97;;;;;;;;;;5100596;28;20203;-87
2023/03/29 09:32:38;;;;;;;8.00;4.30;;;;;;;;;;5106402;28;20211;-87
2023/03/29 09:35:16;;;;;;;10.77;7.43;;;;;;;;;;5091514;28;20201;-86
2023/03/29 09:37:48;;;;;;;22.97;11.43;;;;;;;;;;5095970;28;20208;-87
2023/03/29 09:40:39;;;;;;;27.40;16.87;;;;;;;;;;5097095;28;20251;-86
2023/03/29 09:43:09;;;;;;;20.10;15.53;;;;;;;;;;5096878;28;20205;-85
2023/03/29 09:45:44;;;;;;;20.03;12.63;;;;;;;;;;5102179;28;20208;-87
2023/03/29 09:48:15;;;;;;;23.70;16.73;;;;;;;;;;5103186;28;20207;-88
2023/03/29 09:50:50;;;;;;;6.20;5.57;;;;;;;;;;5112350;28;20200;-87
2023/03/29 09:53:19;;;;;;;17.23;13.67;;;;;;;;;;5101006;28;20205;-85
2023/03/29 09:55:50;;;;;;;13.37;9.50;;;;;;;;;;5095272;28;20215;-87
2023/03/29 09:58:26;;;;;;;12.73;5.80;;;;;;;;;;5103150;28;20461;-85
2023/03/29 10:01:09;;;;;;;16.93;13.40;;;;;;;;;;5106888;28;20214;-88
2023/03/29 10:03:40;;;;;;;7.07;6.23;;;;;;;;;;5095230;28;20213;-85
2023/03/29 10:06:18;;;;;;;23.67;21.20;;;;;;;;;;5097160;27;20220;-88
2023/03/29 10:08:48;;;;;;;15.10;13.40;;;;;;;;;;5100701;28;20212;-86
2023/03/29 10:11:22;;;;;;;14.50;12.83;;;;;;;;;;5101971;28;20193;-87
2023/03/29 10:14:00;;;;;;;9.63;8.60;;;;;;;;;;5101878;28;20200;-86
2023/03/29 10:16:30;;;;;;;15.00;10.57;;;;;;;;;;5099538;28;20204;-86
2023/03/29 10:19:08;;;;;;;18.53;13.63;;;;;;;;;;5097236;28;20324;-87
2023/03/29 10:21:37;;;;;;;14.37;10.07;;;;;;;;;;5099841;28;20205;-87
2023/03/29 10:24:10;;;;;;;14.10;9.13;;;;;;;;;;5100247;28;20209;-89
2023/03/29 10:26:42;;;;;;;19.90;13.50;;;;;;;;;;5098267;28;20217;-87
2023/03/29 10:29:12;;;;;;;9.03;6.93;;;;;;;;;;5100416;28;20212;-88
2023/03/29 10:31:41;;;;;;;18.47;12.40;;;;;;;;;;5095350;28;20249;-87
2023/03/29 10:34:14;;;;;;;14.97;10.90;;;;;;;;;;5101940;28;20207;-89
2023/03/29 10:36:45;;;;;;;13.27;6.77;;;;;;;;;;5099846;28;20227;-87
2023/03/29 10:39:19;;;;;;;19.10;12.80;;;;;;;;;;5101424;28;20193;-86
2023/03/29 10:41:52;;;;;;;11.73;8.57;;;;;;;;;;5098291;28;20256;-85
2023/03/29 10:44:26;;;;;;;18.30;11.73;;;;;;;;;;5093295;28;20295;-84
2023/03/29 10:46:55;;;;;;;7.50;6.70;;;;;;;;;;5104847;28;20216;-85
2023/03/29 10:49:25;;;;;;;5.63;4.73;;;;;;;;;;5103649;28;20288;-83
2023/03/29 10:51:53;;;;;;;6.50;5.10;;;;;;;;;;5110242;28;20219;-82
2023/03/29 10:54:24;;;;;;;6.27;5.00;;;;;;;;;;5105183;28;20220;-84
2023/03/29 10:56:54;;;;;;;8.63;5.53;;;;;;;;;;5111372;28;20209;-84
2023/03/29 10:59:30;;;;;;;8.67;6.63;;;;;;;;;;5101200;28;20208;-83
2023/03/29 11:02:17;;;;;;;6.83;5.67;;;;;;;;;;5105358;28;20204;-83
2023/03/29 11:04:47;;;;;;;9.17;8.23;;;;;;;;;;5100949;28;20253;-82
2023/03/29 11:07:26;;;;;;;9.63;7.60;;;;;;;;;;5100470;28;20216;-84
2023/03/29 11:10:00;;;;;;;12.93;8.77;;;;;;;;;;5104521;28;20192;-85
2023/03/29 11:12:34;;;;;;;7.97;5.83;;;;;;;;;;5111364;28;20343;-86
2023/03/29 11:15:12;;;;;;;12.27;7.13;;;;;;;;;;5101284;28;20197;-85
2023/03/29 11:18:02;;;;;;;8.33;6.53;;;;;;;;;;5098452;28;20241;-85
2023/03/29 11:20:40;;;;;;;4.20;3.80;;;;;;;;;;5097453;28;20264;-85
2023/03/29 11:23:13;;;;;;;7.07;4.50;;;;;;;;;;5100942;28;20236;-85
2023/03/29 11:25:46;;;;;;;14.50;10.80;;;;;;;;;;5098977;28;20209;-84
2023/03/29 11:28:18;;;;;;;8.80;6.03;;;;;;;;;;5099064;28;20290;-83
2023/03/29 11:30:48;;;;;;;6.77;5.00;;;;;;;;;;5097364;28;20193;-84
2023/03/29 11:33:23;;;;;;;5.53;4.30;;;;;;;;;;5097527;28;20289;-85
2023/03/29 11:35:57;;;;;;;4.63;4.27;;;;;;;;;;5099132;28;20200;-82
2023/03/29 11:38:31;;;;;;;7.27;5.20;;;;;;;;;;5109107;28;20208;-84
2023/03/29 11:41:02;;;;;;;13.30;9.30;;;;;;;;;;5107015;28;20217;-83
2023/03/29 11:43:34;;;;;;;9.70;8.07;;;;;;;;;;5096450;28;20231;-84
2023/03/29 11:46:07;;;;;;;6.27;3.67;;;;;;;;;;5096835;28;20206;-85
2023/03/29 11:48:38;;;;;;;8.67;6.37;;;;;;;;;;5099237;28;20209;-84
2023/03/29 11:51:15;;;;;;;8.33;4.00;;;;;;;;;;5096519;28;20197;-83
2023/03/29 11:53:49;;;;;;;8.63;6.17;;;;;;;;;;5109475;28;20262;-83
2023/03/29 11:56:23;;;;;;;7.40;4.40;;;;;;;;;;5109330;27;20213;-84
2023/03/29 11:58:55;;;;;;;8.37;5.73;;;;;;;;;;5101256;28;20358;-83
2023/03/29 12:01:27;;;;;;;13.23;8.73;;;;;;;;;;5095584;28;20219;-83
2023/03/29 12:03:57;;;;;;;14.83;6.67;;;;;;;;;;5100695;28;20207;-82
2023/03/29 12:06:30;;;;;;;11.00;6.57;;;;;;;;;;5098505;28;20252;-84
2023/03/29 12:09:01;;;;;;;13.37;7.27;;;;;;;;;;5107736;28;20234;-82
2023/03/29 12:11:31;;;;;;;10.37;6.87;;;;;;;;;;5097424;28;20236;-83
2023/03/29 12:14:02;;;;;;;9.17;4.70;;;;;;;;;;5101419;27;20209;-82
2023/03/29 12:16:33;;;;;;;11.40;7.80;;;;;;;;;;5098726;28;20206;-85
2023/03/29 12:19:07;;;;;;;9.50;8.30;;;;;;;;;;5099712;28;20292;-85
2023/03/29 12:21:38;;;;;;;6.87;5.30;;;;;;;;;;5099738;28;20226;-84
2023/03/29 12:24:12;;;;;;;11.17;7.80;;;;;;;;;;5101384;27;20327;-82
2023/03/29 12:26:49;;;;;;;8.13;5.27;;;;;;;;;;5103710;28;20202;-83
2023/03/29 12:29:27;;;;;;;8.00;6.93;;;;;;;;;;5096423;28;20205;-82
2023/03/29 12:32:02;;;;;;;8.93;6.67;;;;;;;;;;5106932;28;20262;-83
2023/03/29 12:34:35;;;;;;;8.20;6.00;;;;;;;;;;5107014;28;20206;-83
2023/03/29 12:37:15;;;;;;;10.80;7.37;;;;;;;;;;5114238;28;20241;-83
2023/03/29 12:39:44;;;;;;;5.73;4.47;;;;;;;;;;5113912;28;20229;-83
2023/03/29 12:42:15;;;;;;;14.13;8.47;;;;;;;;;;5099674;28;20237;-83
2023/03/29 12:44:46;;;;;;;7.10;6.13;;;;;;;;;;5099584;28;20203;-83
2023/03/29 12:47:18;;;;;;;9.27;6.87;;;;;;;;;;5093202;28;20234;-83
2023/03/29 12:49:47;;;;;;;3.57;3.17;;;;;;;;;;5112045;28;20253;-84
2023/03/29 12:52:23;;;;;;;14.77;10.47;;;;;;;;;;5114176;28;20208;-83
2023/03/29 12:54:56;;;;;;;6.10;4.97;;;;;;;;;;5103670;28;20209;-83
2023/03/29 12:57:27;;;;;;;3.97;3.27;;;;;;;;;;5106216;28;20227;-84
2023/03/29 12:59:56;;;;;;;14.03;9.60;;;;;;;;;;5109705;28;20270;-84
2023/03/29 13:02:36;;;;;;;14.67;12.00;;;;;;;;;;5096871;28;20217;-84
2023/03/29 13:05:06;;;;;;;19.10;7.80;;;;;;;;;;5111604;28;20205;-84
2023/03/29 13:07:47;;;;;;;5.20;3.43;;;;;;;;;;5106988;28;20209;-83
2023/03/29 13:10:35;;;;;;;3.67;3.37;;;;;;;;;;5094933;28;20224;-83
2023/03/29 13:13:12;;;;;;;4.97;4.23;;;;;;;;;;5113834;28;20240;-84
2023/03/29 13:15:41;;;;;;;4.40;2.97;;;;;;;;;;5107927;28;20205;-83
2023/03/29 13:18:16;;;;;;;3.20;2.33;;;;;;;;;;5109463;28;20236;-84
2023/03/29 13:20:46;;;;;;;6.83;4.57;;;;;;;;;;5113810;28;20276;-83
2023/03/29 13:23:23;;;;;;;15.63;7.03;;;;;;;;;;5110119;27;20212;-83
2023/03/29 13:25:58;;;;;;;7.03;5.90;;;;;;;;;;5105378;28;20199;-83
2023/03/29 13:28:30;;;;;;;4.83;3.60;;;;;;;;;;5112324;28;20222;-83
2023/03/29 13:31:00;;;;;;;8.77;6.93;;;;;;;;;;5105109;28;20257;-83
2023/03/29 13:33:53;;;;;;;5.40;4.83;;;;;;;;;;5103996;28;20205;-83
2023/03/29 13:36:27;;;;;;;5.47;3.60;;;;;;;;;;5085768;28;20191;-83
2023/03/29 13:39:04;;;;;;;10.93;8.03;;;;;;;;;;5105536;28;20195;-83
2023/03/29 13:41:33;;;;;;;15.37;7.13;;;;;;;;;;5109592;28;20233;-83
2023/03/29 13:44:01;;;;;;;22.03;7.63;;;;;;;;;;5113482;28;20224;-83
2023/03/29 13:46:37;;;;;;;13.80;9.53;;;;;;;;;;5097983;28;20217;-83
2023/03/29 13:49:13;;;;;;;6.63;5.50;;;;;;;;;;5093054;28;20190;-83
2023/03/29 13:51:43;;;;;;;14.53;10.23;;;;;;;;;;5104703;28;20330;-83
2023/03/29 13:54:27;;;;;;;5.57;4.37;;;;;;;;;;5098088;28;20201;-83
2023/03/29 13:57:10;;;;;;;5.17;3.60;;;;;;;;;;5096013;28;20201;-83
2023/03/29 13:59:45;;;;;;;3.33;3.13;;;;;;;;;;5092871;28;20207;-83
2023/03/29 14:02:18;;;;;;;2.77;2.03;;;;;;;;;;5092142;28;20205;-83
2023/03/29 14:04:48;;;;;;;12.00;8.77;;;;;;;;;;5093237;28;20192;-82
2023/03/29 14:07:19;;;;;;;6.37;4.73;;;;;;;;;;5092968;28;20426;-83
2023/03/29 14:09:50;;;;;;;17.20;11.67;;;;;;;;;;5092316;28;20209;-83
2023/03/29 14:12:18;;;;;;;16.47;11.73;;;;;;;;;;5093283;28;20199;-83
2023/03/29 14:14:47;;;;;;;12.93;10.70;;;;;;;;;;5092875;28;20202;-83
2023/03/29 14:17:27;;;;;;;19.97;10.37;;;;;;;;;;5092664;28;20201;-83
2023/03/29 14:19:58;;;;;;;16.37;11.73;;;;;;;;;;5092725;28;20229;-83
2023/03/29 14:22:31;;;;;;;9.70;5.80;;;;;;;;;;5092872;28;20284;-83
2023/03/29 14:25:06;;;;;;;11.00;8.80;;;;;;;;;;5092302;28;20193;-83
2023/03/29 14:27:37;;;;;;;15.43;13.83;;;;;;;;;;5092938;28;20194;-83
2023/03/29 14:30:18;;;;;;;22.43;10.87;;;;;;;;;;5092208;28;20201;-83
2023/03/29 14:32:49;;;;;;;9.87;6.40;;;;;;;;;;5092882;28;20196;-83
2023/03/29 14:35:18;;;;;;;13.50;9.67;;;;;;;;;;5092948;28;20212;-83
2023/03/29 14:37:46;;;;;;;7.57;4.33;;;;;;;;;;5092729;28;20223;-83
2023/03/29 14:40:20;;;;;;;15.27;12.57;;;;;;;;;;5092758;28;20185;-83
2023/03/29 14:42:50;;;;;;;15.63;11.00;;;;;;;;;;5092593;28;20243;-83
2023/03/29 14:45:19;;;;;;;13.70;11.63;;;;;;;;;;5092299;28;20262;-83
2023/03/29 14:47:47;;;;;;;3.43;3.13;;;;;;;;;;5092748;28;20232;-83
2023/03/29 14:50:18;;;;;;;6.80;3.33;;;;;;;;;;5092080;28;20232;-83
2023/03/29 14:52:47;;;;;;;10.87;9.40;;;;;;;;;;5092252;28;20287;-83
2023/03/29 14:55:22;;;;;;;16.10;9.13;;;;;;;;;;5092476;28;20214;-83
2023/03/29 14:57:51;;;;;;;12.50;10.00;;;;;;;;;;5092842;28;20203;-83
2023/03/29 15:00:25;;;;;;;7.47;6.00;;;;;;;;;;5092824;28;20197;-83
2023/03/29 15:02:57;;;;;;;10.20;5.67;;;;;;;;;;5092220;28;20220;-83